createdAt,value
2022-10-20T00:01:21.586Z,5.23
2022-10-20T00:03:49.009Z,5.20
2022-10-20T00:06:19.491Z,4.90
2022-10-20T00:08:46.548Z,5.20
2022-10-20T00:11:16.219Z,5.07
2022-10-20T00:13:44.548Z,5.17
2022-10-20T00:16:12.039Z,5.40
2022-10-20T00:18:39.118Z,4.80
2022-10-20T00:21:07.868Z,5.27
2022-10-20T00:23:35.150Z,5.37
2022-10-20T00:26:06.991Z,5.10
2022-10-20T00:28:33.904Z,5.00
2022-10-20T00:31:01.119Z,4.63
2022-10-20T00:33:27.783Z,4.73
2022-10-20T00:35:54.431Z,5.30
2022-10-20T00:38:21.441Z,5.07
2022-10-20T00:40:48.222Z,4.50
2022-10-20T00:43:16.516Z,4.57
2022-10-20T00:45:45.582Z,4.17
2022-10-20T00:48:17.280Z,4.40
2022-10-20T00:50:49.116Z,4.60
2022-10-20T00:53:17.102Z,4.70
2022-10-20T00:55:46.848Z,4.57
2022-10-20T00:58:14.321Z,4.93
2022-10-20T01:00:42.564Z,4.77
2022-10-20T01:03:15.824Z,4.33
2022-10-20T01:05:42.706Z,4.37
2022-10-20T01:08:09.360Z,4.60
2022-10-20T01:10:46.174Z,4.73
2022-10-20T01:13:23.574Z,4.37
2022-10-20T01:16:08.830Z,5.00
2022-10-20T01:18:43.877Z,4.90
2022-10-20T01:21:13.672Z,4.47
2022-10-20T01:24:03.521Z,4.63
2022-10-20T01:26:52.289Z,4.57
2022-10-20T01:29:33.990Z,4.60
2022-10-20T01:32:24.695Z,4.77
2022-10-20T01:35:10.625Z,4.50
2022-10-20T01:37:53.950Z,4.90
2022-10-20T01:40:29.685Z,4.83
2022-10-20T01:42:59.933Z,4.57
2022-10-20T01:45:29.260Z,4.67
2022-10-20T01:47:57.615Z,4.70
2022-10-20T01:50:25.248Z,4.70
2022-10-20T01:52:58.736Z,5.17
2022-10-20T01:55:25.945Z,4.90
2022-10-20T01:58:03.321Z,4.80
2022-10-20T02:00:30.213Z,4.87
2022-10-20T02:03:04.395Z,4.90
2022-10-20T02:05:53.167Z,4.80
2022-10-20T02:08:32.336Z,4.67
2022-10-20T02:11:02.081Z,4.73
2022-10-20T02:13:29.754Z,5.00
2022-10-20T02:16:00.285Z,5.33
2022-10-20T02:18:37.227Z,5.13
2022-10-20T02:21:04.264Z,4.73
2022-10-20T02:23:35.102Z,4.90
2022-10-20T02:26:06.947Z,5.03
2022-10-20T02:28:36.151Z,5.40
2022-10-20T02:31:03.867Z,4.90
2022-10-20T02:33:31.190Z,5.37
2022-10-20T02:35:59.445Z,4.97
2022-10-20T02:38:26.345Z,5.37
2022-10-20T02:40:52.956Z,5.40
2022-10-20T02:43:19.566Z,5.47
2022-10-20T02:45:46.218Z,5.60
2022-10-20T02:48:12.925Z,4.93
2022-10-20T02:50:39.604Z,5.03
2022-10-20T02:53:06.880Z,5.33
2022-10-20T02:55:33.518Z,4.87
2022-10-20T02:58:00.122Z,5.03
2022-10-20T03:00:30.922Z,4.73
2022-10-20T03:02:57.798Z,5.10
2022-10-20T03:05:24.705Z,5.20
2022-10-20T03:07:51.383Z,5.27
2022-10-20T03:10:18.420Z,5.40
2022-10-20T03:12:45.186Z,5.13
2022-10-20T03:15:12.291Z,4.73
2022-10-20T03:17:39.319Z,5.43
2022-10-20T03:20:06.937Z,5.10
2022-10-20T03:22:33.645Z,4.80
2022-10-20T03:25:00.276Z,4.90
2022-10-20T03:27:26.893Z,5.03
2022-10-20T03:29:53.516Z,4.93
2022-10-20T03:32:20.143Z,5.00
2022-10-20T03:34:46.830Z,5.20
2022-10-20T03:37:13.493Z,5.37
2022-10-20T03:39:40.193Z,4.83
2022-10-20T03:42:06.794Z,5.17
2022-10-20T03:44:33.401Z,5.33
2022-10-20T03:47:00.210Z,4.63
2022-10-20T03:49:26.897Z,4.87
2022-10-20T03:51:53.657Z,5.33
2022-10-20T03:54:20.321Z,4.87
2022-10-20T03:56:46.959Z,4.93
2022-10-20T03:59:13.782Z,5.17
2022-10-20T04:01:44.097Z,5.43
2022-10-20T04:04:11.276Z,4.80
2022-10-20T04:06:37.942Z,5.57
2022-10-20T04:09:05.049Z,5.40
2022-10-20T04:11:32.739Z,5.40
2022-10-20T04:13:59.390Z,5.13
2022-10-20T04:16:26.151Z,5.40
2022-10-20T04:18:53.434Z,5.20
2022-10-20T04:21:20.154Z,4.97
2022-10-20T04:23:46.804Z,5.70
2022-10-20T04:26:15.397Z,5.43
2022-10-20T04:28:42.305Z,5.27
2022-10-20T04:31:09.608Z,5.10
2022-10-20T04:33:36.337Z,5.60
2022-10-20T04:36:08.550Z,5.20
2022-10-20T04:38:35.869Z,4.93
2022-10-20T04:41:04.525Z,5.20
2022-10-20T04:43:32.550Z,5.47
2022-10-20T04:46:07.259Z,5.20
2022-10-20T04:48:35.711Z,5.13
2022-10-20T04:51:04.869Z,5.20
2022-10-20T04:53:31.560Z,5.40
2022-10-20T04:55:58.796Z,4.93
2022-10-20T04:58:26.016Z,4.83
2022-10-20T05:00:53.066Z,5.10
2022-10-20T05:03:20.102Z,5.17
2022-10-20T05:05:47.658Z,5.43
2022-10-20T05:08:14.447Z,5.30
2022-10-20T05:10:41.135Z,5.50
2022-10-20T05:13:07.772Z,5.13
2022-10-20T05:15:34.444Z,5.07
2022-10-20T05:18:01.080Z,5.43
2022-10-20T05:20:30.919Z,5.50
2022-10-20T05:22:57.744Z,5.67
2022-10-20T05:25:36.024Z,5.10
2022-10-20T05:28:03.676Z,5.27
2022-10-20T05:30:30.405Z,5.83
2022-10-20T05:32:57.163Z,5.90
2022-10-20T05:35:23.808Z,5.50
2022-10-20T05:37:50.432Z,5.63
2022-10-20T05:40:17.168Z,5.67
2022-10-20T05:42:43.786Z,5.90
2022-10-20T05:45:10.468Z,6.10
2022-10-20T05:47:37.088Z,6.40
2022-10-20T05:50:04.032Z,6.00
2022-10-20T05:52:30.648Z,6.00
2022-10-20T05:54:57.400Z,6.27
2022-10-20T05:57:24.173Z,6.10
2022-10-20T05:59:51.080Z,5.87
2022-10-20T06:02:17.882Z,6.33
2022-10-20T06:04:44.640Z,6.00
2022-10-20T06:07:11.275Z,5.53
2022-10-20T06:09:38.752Z,5.83
2022-10-20T06:12:06.068Z,6.03
2022-10-20T06:14:32.749Z,6.50
2022-10-20T06:16:59.396Z,5.97
2022-10-20T06:19:26.476Z,5.47
2022-10-20T06:21:53.533Z,5.97
2022-10-20T06:24:20.448Z,5.73
2022-10-20T06:26:47.353Z,6.20
2022-10-20T06:29:16.606Z,5.70
2022-10-20T06:31:48.976Z,5.40
2022-10-20T06:34:18.505Z,5.63
2022-10-20T06:36:46.039Z,6.00
2022-10-20T06:39:15.606Z,5.53
2022-10-20T06:41:42.318Z,5.77
2022-10-20T06:44:08.999Z,5.30
2022-10-20T06:46:37.032Z,5.30
2022-10-20T06:49:06.212Z,5.27
2022-10-20T06:51:33.977Z,5.60
2022-10-20T06:54:01.366Z,5.33
2022-10-20T06:56:30.422Z,5.57
2022-10-20T06:58:58.770Z,5.40
2022-10-20T07:01:32.578Z,5.67
2022-10-20T07:04:01.768Z,5.40
2022-10-20T07:06:33.881Z,5.43
2022-10-20T07:09:01.457Z,5.57
2022-10-20T07:11:29.910Z,5.57
2022-10-20T07:13:58.631Z,5.00
2022-10-20T07:16:27.095Z,5.30
2022-10-20T07:18:53.989Z,4.90
2022-10-20T07:21:22.507Z,4.97
2022-10-20T07:23:50.117Z,5.10
2022-10-20T07:26:18.103Z,5.70
2022-10-20T07:28:49.898Z,5.00
2022-10-20T07:31:23.149Z,4.73
2022-10-20T07:34:06.938Z,5.00
2022-10-20T07:36:37.952Z,4.60
2022-10-20T07:39:05.859Z,4.50
2022-10-20T07:41:33.384Z,4.57
2022-10-20T07:44:00.101Z,4.40
2022-10-20T07:46:26.716Z,5.37
2022-10-20T07:48:53.459Z,4.53
2022-10-20T07:51:25.643Z,5.10
2022-10-20T07:54:00.819Z,4.93
2022-10-20T07:56:29.828Z,4.73
2022-10-20T07:58:56.564Z,5.23
2022-10-20T08:01:23.533Z,4.30
2022-10-20T08:03:50.625Z,5.60
2022-10-20T08:06:17.489Z,5.03
2022-10-20T08:08:44.266Z,5.17
2022-10-20T08:11:11.369Z,5.10
2022-10-20T08:13:40.813Z,5.43
2022-10-20T08:16:09.000Z,4.87
2022-10-20T08:18:36.009Z,5.43
2022-10-20T08:21:08.575Z,4.50
2022-10-20T08:23:38.371Z,4.60
2022-10-20T08:26:10.594Z,4.87
2022-10-20T08:28:38.224Z,4.90
2022-10-20T08:31:06.542Z,4.80
2022-10-20T08:33:33.516Z,5.10
2022-10-20T08:36:06.595Z,5.30
2022-10-20T08:38:33.615Z,4.70
2022-10-20T08:41:01.328Z,4.70
2022-10-20T08:43:28.948Z,4.47
2022-10-20T08:45:55.625Z,5.10
2022-10-20T08:48:27.909Z,4.13
2022-10-20T08:50:54.888Z,4.70
2022-10-20T08:53:23.754Z,4.27
2022-10-20T08:55:50.924Z,4.20
2022-10-20T08:58:21.130Z,5.20
2022-10-20T09:00:49.271Z,4.23
2022-10-20T09:03:17.568Z,4.83
2022-10-20T09:05:48.634Z,4.57
2022-10-20T09:08:15.704Z,5.17
2022-10-20T09:10:47.895Z,4.40
2022-10-20T09:13:21.032Z,4.37
2022-10-20T09:15:52.240Z,4.00
2022-10-20T09:18:19.688Z,4.83
2022-10-20T09:21:01.804Z,4.77
2022-10-20T09:23:42.592Z,4.40
2022-10-20T09:26:30.343Z,4.70
2022-10-20T09:29:13.373Z,5.00
2022-10-20T09:34:34.344Z,4.63
2022-10-20T09:37:07.197Z,4.60
2022-10-20T09:39:41.558Z,4.10
2022-10-20T09:42:14.960Z,4.33
2022-10-20T09:44:52.540Z,4.50
2022-10-20T09:47:20.312Z,4.50
2022-10-20T09:49:47.320Z,3.90
2022-10-20T09:52:20.866Z,4.30
2022-10-20T09:54:48.688Z,4.20
2022-10-20T09:57:20.622Z,4.20
2022-10-20T09:59:49.500Z,3.90
2022-10-20T10:02:16.076Z,3.60
2022-10-20T10:04:45.655Z,3.80
2022-10-20T10:07:27.720Z,3.50
2022-10-20T10:10:05.423Z,3.47
2022-10-20T10:12:35.974Z,3.33
2022-10-20T10:15:06.959Z,3.40
2022-10-20T10:17:44.083Z,3.80
2022-10-20T10:20:13.897Z,3.77
2022-10-20T10:22:41.680Z,3.50
2022-10-20T10:25:15.612Z,3.97
2022-10-20T10:27:57.855Z,3.27
2022-10-20T10:30:27.483Z,6.80
2022-10-20T10:32:54.528Z,3.50
2022-10-20T10:35:24.278Z,4.07
2022-10-20T10:37:52.071Z,3.43
2022-10-20T10:40:45.181Z,3.57
2022-10-20T10:43:44.975Z,3.67
2022-10-20T10:46:20.455Z,3.80
2022-10-20T10:49:24.623Z,3.40
2022-10-20T10:52:23.819Z,3.63
2022-10-20T10:54:53.349Z,3.60
2022-10-20T10:58:04.640Z,3.83
2022-10-20T11:00:49.924Z,3.70
2022-10-20T11:03:39.835Z,3.50
2022-10-20T11:06:21.572Z,3.13
2022-10-20T11:09:27.864Z,3.53
2022-10-20T11:12:17.525Z,3.33
2022-10-20T11:15:24.693Z,3.27
2022-10-20T11:18:29.780Z,3.10
2022-10-20T11:21:20.571Z,3.50
2022-10-20T11:24:11.958Z,3.10
2022-10-20T11:26:41.785Z,3.50
2022-10-20T11:29:21.080Z,3.27
2022-10-20T11:32:11.063Z,3.60
2022-10-20T11:34:49.767Z,3.50
2022-10-20T11:37:26.219Z,3.77
2022-10-20T11:40:01.215Z,3.20
2022-10-20T11:42:45.096Z,3.60
2022-10-20T11:45:26.824Z,3.17
2022-10-20T11:48:12.819Z,3.53
2022-10-20T11:50:40.466Z,3.43
2022-10-20T11:53:20.397Z,3.73
2022-10-20T12:00:00.813Z,4.83
2022-10-20T12:02:45.439Z,4.43
2022-10-20T12:11:17.368Z,4.63
2022-10-20T12:13:58.176Z,4.93
2022-10-20T12:17:04.740Z,5.17
2022-10-20T12:19:33.670Z,4.80
2022-10-20T12:22:14.055Z,4.27
2022-10-20T12:24:43.192Z,4.70
2022-10-20T12:27:09.974Z,3.77
2022-10-20T12:29:36.820Z,4.13
2022-10-20T12:32:24.047Z,4.13
2022-10-20T12:35:04.740Z,3.73
2022-10-20T12:37:33.967Z,4.07
2022-10-20T12:40:20.459Z,3.77
2022-10-20T12:42:49.503Z,3.77
2022-10-20T12:45:16.153Z,3.60
2022-10-20T12:47:51.492Z,2.90
2022-10-20T12:50:33.339Z,3.37
2022-10-20T12:53:14.335Z,3.10
2022-10-20T12:55:42.295Z,3.10
2022-10-20T12:58:17.926Z,3.20
2022-10-20T13:00:47.708Z,2.90
2022-10-20T13:03:37.644Z,3.10
2022-10-20T13:06:28.581Z,3.23
2022-10-20T13:09:04.881Z,3.07
2022-10-20T13:11:37.801Z,2.83
2022-10-20T13:14:28.096Z,3.20
2022-10-20T13:17:10.089Z,3.57
2022-10-20T13:19:49.282Z,3.20
2022-10-20T13:22:38.090Z,3.00
2022-10-20T13:25:12.076Z,2.97
2022-10-20T13:27:39.142Z,2.90
2022-10-20T13:30:10.332Z,2.70
2022-10-20T13:33:01.594Z,3.00
2022-10-20T13:35:46.789Z,2.93
2022-10-20T13:38:19.973Z,2.87
2022-10-20T13:41:34.655Z,2.87
2022-10-20T13:44:30.519Z,2.70
2022-10-20T13:47:12.185Z,3.00
2022-10-20T13:49:59.626Z,2.87
2022-10-20T13:52:30.941Z,2.80
2022-10-20T13:54:59.095Z,3.00
2022-10-20T13:57:29.086Z,2.67
2022-10-20T14:00:00.990Z,2.80
2022-10-20T14:02:34.972Z,2.67
2022-10-20T14:05:06.976Z,2.70
2022-10-20T14:07:44.059Z,2.50
2022-10-20T14:10:26.817Z,2.77
2022-10-20T14:12:54.071Z,2.67
2022-10-20T14:15:24.993Z,2.70
2022-10-20T14:18:07.537Z,2.70
2022-10-20T14:20:39.254Z,2.60
2022-10-20T14:23:06.482Z,2.43
2022-10-20T14:25:33.633Z,2.50
2022-10-20T14:28:03.852Z,2.83
2022-10-20T14:30:35.384Z,2.50
2022-10-20T14:33:05.470Z,2.90
2022-10-20T14:35:39.870Z,2.60
2022-10-20T14:38:18.545Z,2.80
2022-10-20T14:40:58.785Z,2.70
2022-10-20T14:43:36.507Z,2.50
2022-10-20T14:46:04.102Z,2.87
2022-10-20T14:48:53.878Z,2.70
2022-10-20T14:51:32.834Z,2.90
2022-10-20T14:54:17.178Z,2.77
2022-10-20T14:56:49.942Z,2.60
2022-10-20T14:59:22.119Z,2.87
2022-10-20T15:02:10.169Z,2.67
2022-10-20T15:04:41.322Z,2.90
2022-10-20T15:07:11.138Z,2.87
2022-10-20T15:09:41.093Z,2.70
2022-10-20T15:12:17.978Z,2.77
2022-10-20T15:14:50.513Z,2.80
2022-10-20T15:17:41.746Z,2.83
2022-10-20T15:20:30.318Z,2.80
2022-10-20T15:22:58.523Z,2.93
2022-10-20T15:25:26.473Z,2.73
2022-10-20T15:27:53.536Z,2.77
2022-10-20T15:30:21.930Z,2.87
2022-10-20T15:32:49.012Z,2.70
2022-10-20T15:35:18.978Z,2.77
2022-10-20T15:37:52.794Z,2.90
2022-10-20T15:40:22.517Z,2.53
2022-10-20T15:42:49.281Z,3.23
2022-10-20T15:45:21.910Z,2.77
2022-10-20T15:47:48.953Z,2.90
2022-10-20T15:50:16.243Z,2.80
2022-10-20T15:52:43.132Z,3.00
2022-10-20T15:55:12.603Z,2.80
2022-10-20T15:57:39.576Z,3.00
2022-10-20T16:00:07.099Z,2.93
2022-10-20T16:02:33.805Z,3.03
2022-10-20T16:05:00.643Z,2.93
2022-10-20T16:07:27.618Z,3.13
2022-10-20T16:09:54.357Z,3.30
2022-10-20T16:12:21.106Z,3.20
2022-10-20T16:14:47.767Z,3.00
2022-10-20T16:17:14.584Z,2.90
2022-10-20T16:19:41.239Z,3.60
2022-10-20T16:22:08.015Z,3.20
2022-10-20T16:24:34.828Z,3.40
2022-10-20T16:29:35.522Z,3.07
2022-10-20T16:32:02.693Z,3.03
2022-10-20T16:34:29.746Z,2.90
2022-10-20T16:36:56.692Z,3.27
2022-10-20T16:39:23.609Z,3.13
2022-10-20T16:41:50.356Z,3.20
2022-10-20T16:44:17.097Z,3.40
2022-10-20T16:46:44.009Z,3.60
2022-10-20T16:49:11.034Z,3.93
2022-10-20T16:51:37.830Z,3.50
2022-10-20T16:54:04.899Z,3.60
2022-10-20T16:56:31.780Z,3.60
2022-10-20T16:58:58.586Z,3.50
2022-10-20T17:01:25.411Z,3.87
2022-10-20T17:03:53.097Z,3.30
2022-10-20T17:06:22.815Z,3.53
2022-10-20T17:08:50.147Z,3.50
2022-10-20T17:11:22.846Z,3.63
2022-10-20T17:13:50.142Z,3.47
2022-10-20T17:16:21.496Z,3.50
2022-10-20T17:18:50.436Z,3.30
2022-10-20T17:21:17.120Z,4.07
2022-10-20T17:23:44.859Z,3.60
2022-10-20T17:26:20.575Z,3.63
2022-10-20T17:28:48.975Z,3.80
2022-10-20T17:33:48.870Z,3.80
2022-10-20T17:36:15.919Z,4.30
2022-10-20T17:38:43.062Z,4.13
2022-10-20T17:41:12.518Z,3.80
2022-10-20T17:43:39.674Z,3.57
2022-10-20T17:46:08.877Z,4.57
2022-10-20T17:48:36.343Z,4.57
2022-10-20T17:51:09.930Z,3.90
2022-10-20T17:53:38.677Z,4.33
2022-10-20T17:56:12.282Z,4.53
2022-10-20T17:58:39.069Z,4.20
2022-10-20T18:01:15.191Z,4.60
2022-10-20T18:03:42.495Z,4.30
2022-10-20T18:06:12.211Z,4.37
2022-10-20T18:08:39.410Z,4.27
2022-10-20T18:11:14.108Z,4.50
2022-10-20T18:13:41.141Z,4.30
2022-10-20T18:16:13.424Z,4.30
2022-10-20T18:18:40.625Z,4.27
2022-10-20T18:21:09.313Z,4.57
2022-10-20T18:23:36.949Z,4.27
2022-10-20T18:26:06.726Z,4.03
2022-10-20T18:28:34.134Z,4.23
2022-10-20T18:31:08.230Z,4.47
2022-10-20T18:33:35.089Z,4.23
2022-10-20T18:36:06.036Z,4.87
2022-10-20T18:38:35.711Z,4.53
2022-10-20T18:41:07.437Z,4.67
2022-10-20T18:43:34.476Z,4.50
2022-10-20T18:46:02.642Z,4.50
2022-10-20T18:48:30.876Z,4.27
2022-10-20T18:51:00.188Z,4.33
2022-10-20T18:53:28.457Z,4.20
2022-10-20T18:56:15.417Z,4.63
2022-10-20T18:58:43.933Z,4.47
2022-10-20T19:01:13.043Z,4.83
2022-10-20T19:03:40.870Z,4.20
2022-10-20T19:06:13.471Z,4.37
2022-10-20T19:08:40.765Z,4.57
2022-10-20T19:11:11.065Z,4.50
2022-10-20T19:13:38.310Z,4.53
2022-10-20T19:16:10.646Z,4.33
2022-10-20T19:18:40.493Z,4.10
2022-10-20T19:21:08.192Z,4.53
2022-10-20T19:23:41.670Z,4.53
2022-10-20T19:26:11.360Z,4.50
2022-10-20T19:28:40.633Z,4.30
2022-10-20T19:31:21.269Z,4.90
2022-10-20T19:33:50.435Z,5.10
2022-10-20T19:36:17.661Z,5.50
2022-10-20T19:38:44.801Z,5.00
2022-10-20T19:41:11.928Z,5.20
2022-10-20T19:43:39.454Z,5.20
2022-10-20T19:46:08.353Z,5.20
2022-10-20T19:48:35.966Z,5.27
2022-10-20T19:51:03.364Z,5.13
2022-10-20T19:53:30.164Z,5.00
2022-10-20T19:55:57.104Z,5.00
2022-10-20T19:58:24.268Z,4.80
2022-10-20T20:00:53.094Z,4.83
2022-10-20T20:03:19.934Z,5.37
2022-10-20T20:05:48.336Z,5.60
2022-10-20T20:08:15.277Z,5.27
2022-10-20T20:10:45.018Z,5.10
2022-10-20T20:13:11.750Z,5.10
2022-10-20T20:15:38.481Z,5.23
2022-10-20T20:18:06.102Z,5.10
2022-10-20T20:20:32.817Z,5.13
2022-10-20T20:22:59.489Z,5.00
2022-10-20T20:25:26.139Z,5.37
2022-10-20T20:27:54.249Z,5.60
2022-10-20T20:30:20.964Z,5.17
2022-10-20T20:32:48.701Z,6.00
2022-10-20T20:35:17.567Z,5.83
2022-10-20T20:37:44.310Z,5.07
2022-10-20T20:40:11.237Z,5.20
2022-10-20T20:42:37.915Z,5.20
2022-10-20T20:45:05.019Z,5.00
2022-10-20T20:47:31.979Z,5.40
2022-10-20T20:50:00.485Z,5.13
2022-10-20T20:52:29.384Z,5.00
2022-10-20T20:54:56.357Z,4.97
2022-10-20T20:57:23.193Z,5.13
2022-10-20T20:59:50.355Z,5.37
2022-10-20T21:02:18.150Z,5.23
2022-10-20T21:04:44.851Z,5.90
2022-10-20T21:07:12.277Z,5.60
2022-10-20T21:09:38.968Z,5.83
2022-10-20T21:12:05.953Z,5.43
2022-10-20T21:14:33.226Z,5.53
2022-10-20T21:17:00.854Z,5.70
2022-10-20T21:19:27.509Z,7.50
2022-10-20T21:22:01.395Z,5.70
2022-10-20T21:24:28.289Z,6.37
2022-10-20T21:26:55.158Z,6.40
2022-10-20T21:29:22.009Z,6.10
2022-10-20T21:31:48.731Z,6.47
2022-10-20T21:34:15.442Z,6.27
2022-10-20T21:36:42.351Z,6.30
2022-10-20T21:39:12.631Z,5.80
2022-10-20T21:41:39.426Z,6.07
2022-10-20T21:44:08.038Z,6.40
2022-10-20T21:46:39.031Z,5.77
2022-10-20T21:49:08.093Z,6.60
2022-10-20T21:51:39.964Z,6.10
2022-10-20T21:54:10.412Z,6.30
2022-10-20T21:56:38.757Z,6.73
2022-10-20T21:59:06.202Z,6.60
2022-10-20T22:01:33.062Z,6.57
2022-10-20T22:03:59.979Z,6.27
2022-10-20T22:06:27.837Z,6.90
2022-10-20T22:08:57.046Z,6.20
2022-10-20T22:11:28.052Z,6.30
2022-10-20T22:13:55.242Z,7.10
2022-10-20T22:16:25.887Z,7.17
2022-10-20T22:18:57.247Z,6.27
2022-10-20T22:21:24.011Z,6.20
2022-10-20T22:23:53.540Z,6.57
2022-10-20T22:26:20.773Z,6.80
2022-10-20T22:28:47.489Z,7.10
2022-10-20T22:31:17.295Z,7.10
2022-10-20T22:33:44.874Z,6.73
2022-10-20T22:36:11.637Z,7.47
2022-10-20T22:38:38.290Z,6.73
2022-10-20T22:41:05.283Z,7.20
2022-10-20T22:43:32.378Z,6.93
2022-10-20T22:45:59.319Z,6.70
2022-10-20T22:48:26.151Z,6.93
2022-10-20T22:50:52.979Z,6.90
2022-10-20T22:53:19.914Z,7.27
2022-10-20T22:55:46.719Z,7.00
2022-10-20T22:58:13.619Z,7.43
2022-10-20T23:00:41.440Z,7.10
2022-10-20T23:03:08.368Z,7.13
2022-10-20T23:05:35.537Z,7.30
2022-10-20T23:08:02.333Z,7.53
2022-10-20T23:10:29.136Z,7.37
2022-10-20T23:12:55.786Z,7.37
2022-10-20T23:15:22.552Z,7.33
2022-10-20T23:17:49.399Z,7.30
2022-10-20T23:20:16.334Z,7.07
2022-10-20T23:22:43.115Z,7.47
2022-10-20T23:25:10.121Z,7.60
2022-10-20T23:27:37.206Z,7.60
2022-10-20T23:30:04.477Z,7.63
2022-10-20T23:32:31.329Z,7.70
2022-10-20T23:34:58.012Z,7.30
2022-10-20T23:37:24.716Z,7.13
2022-10-20T23:39:51.386Z,7.27
2022-10-20T23:42:18.109Z,7.40
2022-10-20T23:44:44.851Z,7.47
2022-10-20T23:47:11.631Z,7.90
2022-10-20T23:49:38.341Z,7.70
2022-10-20T23:52:05.250Z,8.27
2022-10-20T23:54:31.952Z,7.90
2022-10-20T23:56:58.682Z,8.20
2022-10-20T23:59:25.372Z,7.67
